Aérodrome :
LOGIN :

S'inscrire | Disclaimer

   EN    FR    IT 

 










Légende :    VFR   VFR Marginal   IFR   IFR Intensif   IFR Très Intensif
Visi : 
Plafond : 
>= 8 km
>= 3000ft
5 à 8 km
1000 à 3000 ft
1500m à 5 km
500 à 1000 ft
800 à 1500m
200 à 500 ft
< 800m
< 200 ft
Symboles :   Orages  Brouillard  Fortes neiges  Fortes précipitations  Vent > 20 kt
SIGMETs :   Divers  Orages  Givrage  Turbulence  Onde Orograph.  Cendres Volcan.






- Altitude de l'aérodrome : 870 ft
- Code IATA : ETZ


LFJL - Metz Nancy Lorraine

DERNIER METAR :
  • 280000Z AUTO 36005KT 9999 BKN047 11/07 Q1023 NOSIG

METARs EXPIRÉS :
  • 272330Z AUTO 01005KT 9999 BKN042 12/07 Q1023 NOSIG
  • 272300Z AUTO 36005KT 9999 BKN044 12/08 Q1023 NOSIG
  • 272230Z AUTO 32005KT 9999 BKN042 13/09 Q1023 NOSIG
  • 272200Z AUTO 29004KT CAVOK 13/09 Q1023 NOSIG
  • 272130Z AUTO 24004KT CAVOK 13/10 Q1023 NOSIG

TAF TAF LFJL
Valide du 28 à 00h jusqu'au 29 à 00h UTC


272300Z 2800/2824 36005KT 9999 BKN035
TEMPO 2800/2808 20003KT CAVOK
PROB30
TEMPO 2814/2818 -SHRA FEW030TCU



MET'MAP, la Météo Aéronautique d'un coup d'oeil ! - Copyright ORBIFLY Décembre 2007 - Disclaimer

ORBIFLY MET'MAP TEAM :

Programmation & Développement : Alexandra Zaïnal
Sur une idée originale de : Baudouin d'Aumeries
Soutien technique & logistique : Manuel Goepfert
Assistance : Marc-Olivier Méhu

Contact : metmap@orbifly.com




SOURCES & CREDITS :

   NOAA